sensor_id;sensor_type;location;lat;lon;timestamp;pressure;altitude;pressure_sealevel;temperature;humidity
45253;BME280;63171;50.520;30.486;2024-01-15T00:00:39;98376.72;;;0.08;100.00
45253;BME280;63171;50.520;30.486;2024-01-15T00:01:29;98382.69;;;0.08;100.00
45253;BME280;63171;50.520;30.486;2024-01-15T00:02:19;98375.75;;;0.10;100.00
45253;BME280;63171;50.520;30.486;2024-01-15T00:03:09;98367.00;;;0.14;100.00
45253;BME280;63171;50.520;30.486;2024-01-15T00:04:00;98390.09;;;0.16;100.00
45253;BME280;63171;50.520;30.486;2024-01-15T00:04:51;98375.50;;;0.16;100.00
45253;BME280;63171;50.520;30.486;2024-01-15T00:05:40;98376.56;;;0.11;100.00
45253;BME280;63171;50.520;30.486;2024-01-15T00:06:30;98377.56;;;0.08;100.00
45253;BME280;63171;50.520;30.486;2024-01-15T00:07:22;98378.13;;;0.15;100.00
45253;BME280;63171;50.520;30.486;2024-01-15T00:08:13;98378.25;;;0.12;100.00
45253;BME280;63171;50.520;30.486;2024-01-15T00:09:03;98380.81;;;0.12;100.00
45253;BME280;63171;50.520;30.486;2024-01-15T00:09:55;98372.91;;;0.16;100.00
45253;BME280;63171;50.520;30.486;2024-01-15T00:10:46;98372.91;;;0.16;100.00
45253;BME280;63171;50.520;30.486;2024-01-15T00:11:37;98380.50;;;0.19;100.00
45253;BME280;63171;50.520;30.486;2024-01-15T00:12:26;98368.59;;;0.17;100.00
45253;BME280;63171;50.520;30.486;2024-01-15T00:13:17;98370.44;;;0.13;100.00
45253;BME280;63171;50.520;30.486;2024-01-15T00:14:08;98363.63;;;0.12;100.00
45253;BME280;63171;50.520;30.486;2024-01-15T00:14:58;98366.22;;;0.12;100.00
45253;BME280;63171;50.520;30.486;2024-01-15T00:15:49;98368.66;;;0.15;100.00
45253;BME280;63171;50.520;30.486;2024-01-15T00:16:40;98365.06;;;0.19;100.00
45253;BME280;63171;50.520;30.486;2024-01-15T00:17:29;98372.84;;;0.18;100.00
45253;BME280;63171;50.520;30.486;2024-01-15T00:18:20;98363.09;;;0.24;100.00
45253;BME280;63171;50.520;30.486;2024-01-15T00:19:10;98356.34;;;0.22;100.00
45253;BME280;63171;50.520;30.486;2024-01-15T00:20:00;98370.34;;;0.16;100.00
45253;BME280;63171;50.520;30.486;2024-01-15T00:20:50;98371.25;;;0.15;100.00
45253;BME280;63171;50.520;30.486;2024-01-15T00:21:40;98377.22;;;0.16;100.00
45253;BME280;63171;50.520;30.486;2024-01-15T00:22:30;98371.88;;;0.20;100.00
45253;BME280;63171;50.520;30.486;2024-01-15T00:23:22;98372.78;;;0.19;100.00
45253;BME280;63171;50.520;30.486;2024-01-15T00:24:12;98376.84;;;0.05;100.00
45253;BME280;63171;50.520;30.486;2024-01-15T00:25:02;98370.88;;;0.04;100.00
45253;BME280;63171;50.520;30.486;2024-01-15T00:25:54;98368.66;;;0.15;100.00
45253;BME280;63171;50.520;30.486;2024-01-15T00:26:44;98374.16;;;0.08;100.00
45253;BME280;63171;50.520;30.486;2024-01-15T00:27:34;98373.03;;;0.13;100.00
45253;BME280;63171;50.520;30.486;2024-01-15T00:28:25;98372.69;;;0.21;100.00
45253;BME280;63171;50.520;30.486;2024-01-15T00:29:15;98369.59;;;0.14;100.00
45253;BME280;63171;50.520;30.486;2024-01-15T00:30:06;98366.72;;;0.20;100.00
45253;BME280;63171;50.520;30.486;2024-01-15T00:30:56;98381.41;;;0.18;100.00
45253;BME280;63171;50.520;30.486;2024-01-15T00:31:46;98379.66;;;0.19;100.00
45253;BME280;63171;50.520;30.486;2024-01-15T00:32:37;98377.31;;;0.14;100.00
45253;BME280;63171;50.520;30.486;2024-01-15T00:33:27;98367.56;;;0.21;100.00
45253;BME280;63171;50.520;30.486;2024-01-15T00:34:18;98367.47;;;0.22;100.00
45253;BME280;63171;50.520;30.486;2024-01-15T00:35:08;98365.81;;;0.21;100.00
45253;BME280;63171;50.520;30.486;2024-01-15T00:35:58;98360.81;;;0.18;100.00
45253;BME280;63171;50.520;30.486;2024-01-15T00:36:48;98359.97;;;0.18;100.00
45253;BME280;63171;50.520;30.486;2024-01-15T00:37:38;98369.50;;;0.16;100.00
45253;BME280;63171;50.520;30.486;2024-01-15T00:38:29;98371.25;;;0.15;100.00
45253;BME280;63171;50.520;30.486;2024-01-15T00:39:19;98376.31;;;0.17;100.00
45253;BME280;63171;50.520;30.486;2024-01-15T00:40:10;98364.75;;;0.25;100.00
45253;BME280;63171;50.520;30.486;2024-01-15T00:41:02;98359.50;;;0.28;100.00
45253;BME280;63171;50.520;30.486;2024-01-15T00:41:52;98363.75;;;0.29;100.00
45253;BME280;63171;50.520;30.486;2024-01-15T00:42:42;98365.50;;;0.29;100.00
45253;BME280;63171;50.520;30.486;2024-01-15T00:43:33;98364.84;;;0.24;100.00
45253;BME280;63171;50.520;30.486;2024-01-15T00:44:24;98369.88;;;0.27;100.00
45253;BME280;63171;50.520;30.486;2024-01-15T00:45:14;98364.66;;;0.28;100.00
45253;BME280;63171;50.520;30.486;2024-01-15T00:46:04;98367.63;;;0.19;100.00
45253;BME280;63171;50.520;30.486;2024-01-15T00:46:55;98360.16;;;0.13;100.00
45253;BME280;63171;50.520;30.486;2024-01-15T00:47:45;98369.38;;;0.19;100.00
45253;BME280;63171;50.520;30.486;2024-01-15T00:48:36;98365.59;;;0.26;100.00
45253;BME280;63171;50.520;30.486;2024-01-15T00:49:26;98367.34;;;0.25;100.00
45253;BME280;63171;50.520;30.486;2024-01-15T00:50:16;98374.91;;;0.10;100.00
45253;BME280;63171;50.520;30.486;2024-01-15T00:51:08;98368.59;;;0.17;100.00
45253;BME280;63171;50.520;30.486;2024-01-15T00:51:57;98370.97;;;0.21;100.00
45253;BME280;63171;50.520;30.486;2024-01-15T00:52:47;98374.16;;;0.26;100.00
45253;BME280;63171;50.520;30.486;2024-01-15T00:53:38;98375.28;;;0.21;100.00
45253;BME280;63171;50.520;30.486;2024-01-15T00:54:28;98364.97;;;0.21;100.00
45253;BME280;63171;50.520;30.486;2024-01-15T00:55:18;98368.25;;;0.24;100.00
45253;BME280;63171;50.520;30.486;2024-01-15T00:56:10;98363.81;;;0.28;100.00
45253;BME280;63171;50.520;30.486;2024-01-15T00:57:00;98370.63;;;0.29;100.00
45253;BME280;63171;50.520;30.486;2024-01-15T00:57:52;98365.66;;;0.24;100.00
45253;BME280;63171;50.520;30.486;2024-01-15T00:58:42;98355.53;;;0.21;100.00
45253;BME280;63171;50.520;30.486;2024-01-15T00:59:32;98368.97;;;0.28;100.00
45253;BME280;63171;50.520;30.486;2024-01-15T01:00:22;98367.47;;;0.22;100.00
45253;BME280;63171;50.520;30.486;2024-01-15T01:04:31;98342.94;;;0.15;100.00
45253;BME280;63171;50.520;30.486;2024-01-15T01:05:22;98339.72;;;0.10;100.00
45253;BME280;63171;50.520;30.486;2024-01-15T01:06:12;98357.09;;;0.05;100.00
45253;BME280;63171;50.520;30.486;2024-01-15T01:07:01;98351.66;;;0.11;100.00
45253;BME280;63171;50.520;30.486;2024-01-15T01:07:52;98343.75;;;0.16;100.00
45253;BME280;63171;50.520;30.486;2024-01-15T01:08:42;98346.41;;;0.14;100.00
45253;BME280;63171;50.520;30.486;2024-01-15T01:09:32;98345.91;;;0.06;100.00
45253;BME280;63171;50.520;30.486;2024-01-15T01:10:22;98348.25;;;0.11;100.00
45253;BME280;63171;50.520;30.486;2024-01-15T01:11:14;98351.75;;;0.10;100.00
45253;BME280;63171;50.520;30.486;2024-01-15T01:12:04;98345.06;;;0.06;100.00
45253;BME280;63171;50.520;30.486;2024-01-15T01:12:54;98354.47;;;0.07;100.00
45253;BME280;63171;50.520;30.486;2024-01-15T01:13:44;98346.66;;;0.08;100.00
45253;BME280;63171;50.520;30.486;2024-01-15T01:14:34;98342.56;;;0.04;100.00
45253;BME280;63171;50.520;30.486;2024-01-15T01:15:25;98349.25;;;0.08;100.00
45253;BME280;63171;50.520;30.486;2024-01-15T01:16:14;98353.63;;;0.06;100.00
45253;BME280;63171;50.520;30.486;2024-01-15T01:17:04;98355.88;;;0.14;100.00
45253;BME280;63171;50.520;30.486;2024-01-15T01:17:55;98357.41;;;0.18;100.00
45253;BME280;63171;50.520;30.486;2024-01-15T01:18:45;98345.50;;;0.15;100.00
45253;BME280;63171;50.520;30.486;2024-01-15T01:19:36;98350.00;;;0.10;100.00
45253;BME280;63171;50.520;30.486;2024-01-15T01:20:25;98353.00;;;0.01;100.00
45253;BME280;63171;50.520;30.486;2024-01-15T01:21:15;98351.38;;;-0.02;100.00
45253;BME280;63171;50.520;30.486;2024-01-15T01:22:06;98357.44;;;-0.03;100.00
45253;BME280;63171;50.520;30.486;2024-01-15T01:22:56;98347.06;;;-0.01;100.00
45253;BME280;63171;50.520;30.486;2024-01-15T01:23:46;98352.16;;;0.01;100.00
45253;BME280;63171;50.520;30.486;2024-01-15T01:24:37;98353.03;;;-0.01;100.00
45253;BME280;63171;50.520;30.486;2024-01-15T01:25:27;98354.38;;;0.08;100.00
45253;BME280;63171;50.520;30.486;2024-01-15T01:26:18;98352.72;;;0.07;100.00
45253;BME280;63171;50.520;30.486;2024-01-15T01:27:08;98350.06;;;0.09;100.00
45253;BME280;63171;50.520;30.486;2024-01-15T01:27:58;98348.25;;;0.11;100.00
45253;BME280;63171;50.520;30.486;2024-01-15T01:28:49;98345.00;;;0.07;100.00
45253;BME280;63171;50.520;30.486;2024-01-15T01:29:39;98360.44;;;0.07;100.00
45253;BME280;63171;50.520;30.486;2024-01-15T01:30:28;98354.38;;;0.08;100.00
45253;BME280;63171;50.520;30.486;2024-01-15T01:31:19;98363.00;;;0.07;100.00
45253;BME280;63171;50.520;30.486;2024-01-15T01:32:09;98356.41;;;0.02;100.00
45253;BME280;63171;50.520;30.486;2024-01-15T01:33:00;98355.69;;;-0.02;100.00
45253;BME280;63171;50.520;30.486;2024-01-15T01:33:50;98352.94;;;0.03;100.00
45253;BME280;63171;50.520;30.486;2024-01-15T01:34:41;98352.41;;;0.15;100.00
45253;BME280;63171;50.520;30.486;2024-01-15T01:35:31;98359.81;;;0.02;100.00
45253;BME280;63171;50.520;30.486;2024-01-15T01:36:22;98343.72;;;-0.03;100.00
45253;BME280;63171;50.520;30.486;2024-01-15T01:37:12;98349.63;;;-0.01;100.00
45253;BME280;63171;50.520;30.486;2024-01-15T01:38:02;98345.75;;;-0.10;100.00
45253;BME280;63171;50.520;30.486;2024-01-15T01:38:53;98342.66;;;-0.18;100.00
45253;BME280;63171;50.520;30.486;2024-01-15T01:39:43;98350.81;;;-0.08;100.00
45253;BME280;63171;50.520;30.486;2024-01-15T01:40:33;98359.38;;;-0.08;100.00
45253;BME280;63171;50.520;30.486;2024-01-15T01:41:25;98355.81;;;-0.05;100.00
45253;BME280;63171;50.520;30.486;2024-01-15T01:42:15;98351.88;;;-0.12;100.00
45253;BME280;63171;50.520;30.486;2024-01-15T01:43:05;98341.28;;;-0.06;100.00
45253;BME280;63171;50.520;30.486;2024-01-15T01:43:56;98349.00;;;-0.06;100.00
45253;BME280;63171;50.520;30.486;2024-01-15T01:44:46;98349.44;;;0.04;100.00
45253;BME280;63171;50.520;30.486;2024-01-15T01:45:36;98348.63;;;0.03;100.00
45253;BME280;63171;50.520;30.486;2024-01-15T01:46:27;98347.56;;;0.07;100.00
45253;BME280;63171;50.520;30.486;2024-01-15T01:47:18;98347.97;;;-0.02;100.00
45253;BME280;63171;50.520;30.486;2024-01-15T01:48:08;98353.53;;;-0.11;100.00
45253;BME280;63171;50.520;30.486;2024-01-15T01:48:58;98348.88;;;-0.03;100.00
45253;BME280;63171;50.520;30.486;2024-01-15T01:49:54;98353.91;;;0.00;100.00
45253;BME280;63171;50.520;30.486;2024-01-15T01:50:44;98346.44;;;0.13;100.00
45253;BME280;63171;50.520;30.486;2024-01-15T01:51:35;98341.19;;;0.16;100.00
45253;BME280;63171;50.520;30.486;2024-01-15T01:52:25;98348.91;;;0.16;100.00
45253;BME280;63171;50.520;30.486;2024-01-15T01:53:15;98353.34;;;0.12;100.00
45253;BME280;63171;50.520;30.486;2024-01-15T01:54:06;98350.44;;;0.01;100.00
45253;BME280;63171;50.520;30.486;2024-01-15T01:54:58;98355.44;;;0.04;100.00
45253;BME280;63171;50.520;30.486;2024-01-15T01:55:49;98356.13;;;0.08;100.00
45253;BME280;63171;50.520;30.486;2024-01-15T01:56:42;98349.53;;;0.02;100.00
45253;BME280;63171;50.520;30.486;2024-01-15T01:57:32;98347.56;;;0.07;100.00
45253;BME280;63171;50.520;30.486;2024-01-15T01:58:23;98350.16;;;0.07;100.00
45253;BME280;63171;50.520;30.486;2024-01-15T01:59:15;98350.84;;;0.11;100.00
45253;BME280;63171;50.520;30.486;2024-01-15T02:00:06;98349.75;;;0.16;100.00
45253;BME280;63171;50.520;30.486;2024-01-15T02:01:03;98350.28;;;0.23;100.00
45253;BME280;63171;50.520;30.486;2024-01-15T02:01:54;98353.69;;;0.23;100.00
45253;BME280;63171;50.520;30.486;2024-01-15T02:02:45;98351.41;;;0.17;100.00
45253;BME280;63171;50.520;30.486;2024-01-15T02:03:35;98349.44;;;0.04;100.00
45253;BME280;63171;50.520;30.486;2024-01-15T02:04:26;98350.06;;;0.09;100.00
45253;BME280;63171;50.520;30.486;2024-01-15T02:05:18;98336.31;;;0.10;100.00
45253;BME280;63171;50.520;30.486;2024-01-15T02:06:09;98350.00;;;0.10;100.00
45253;BME280;63171;50.520;30.486;2024-01-15T02:07:00;98343.03;;;-0.07;100.00
45253;BME280;63171;50.520;30.486;2024-01-15T02:07:50;98338.47;;;0.00;100.00
45253;BME280;63171;50.520;30.486;2024-01-15T02:08:43;98341.22;;;-0.05;100.00
45253;BME280;63171;50.520;30.486;2024-01-15T02:09:34;98352.94;;;0.03;100.00
45253;BME280;63171;50.520;30.486;2024-01-15T02:10:23;98346.81;;;-0.15;100.00
45253;BME280;63171;50.520;30.486;2024-01-15T02:11:13;98340.75;;;-0.13;100.00
45253;BME280;63171;50.520;30.486;2024-01-15T02:12:06;98341.81;;;-0.18;100.00
45253;BME280;63171;50.520;30.486;2024-01-15T02:12:56;98344.84;;;-0.09;100.00
45253;BME280;63171;50.520;30.486;2024-01-15T02:13:48;98349.91;;;-0.07;100.00
45253;BME280;63171;50.520;30.486;2024-01-15T02:14:39;98345.75;;;-0.10;100.00
45253;BME280;63171;50.520;30.486;2024-01-15T02:15:30;98347.19;;;-0.04;100.00
45253;BME280;63171;50.520;30.486;2024-01-15T02:16:20;98349.16;;;-0.09;100.00
45253;BME280;63171;50.520;30.486;2024-01-15T02:17:10;98338.84;;;-0.09;100.00
45253;BME280;63171;50.520;30.486;2024-01-15T02:18:02;98344.00;;;-0.09;100.00
45253;BME280;63171;50.520;30.486;2024-01-15T02:18:52;98346.56;;;-0.09;100.00
45253;BME280;63171;50.520;30.486;2024-01-15T02:19:41;98344.84;;;-0.09;100.00
45253;BME280;63171;50.520;30.486;2024-01-15T02:20:32;98353.25;;;-0.05;100.00
45253;BME280;63171;50.520;30.486;2024-01-15T02:21:22;98347.63;;;-0.13;100.00
45253;BME280;63171;50.520;30.486;2024-01-15T02:22:13;98345.16;;;-0.16;100.00
45253;BME280;63171;50.520;30.486;2024-01-15T02:23:12;98348.88;;;-0.03;100.00
45253;BME280;63171;50.520;30.486;2024-01-15T02:24:02;98346.75;;;-0.14;100.00
45253;BME280;63171;50.520;30.486;2024-01-15T02:24:53;98343.34;;;-0.14;100.00
45253;BME280;63171;50.520;30.486;2024-01-15T02:25:44;98348.94;;;-0.05;100.00
45253;BME280;63171;50.520;30.486;2024-01-15T02:26:35;98346.22;;;-0.02;100.00
45253;BME280;63171;50.520;30.486;2024-01-15T02:27:26;98349.00;;;-0.06;100.00
45253;BME280;63171;50.520;30.486;2024-01-15T02:28:17;98352.34;;;-0.04;100.00
45253;BME280;63171;50.520;30.486;2024-01-15T02:29:08;98347.06;;;-0.01;100.00
45253;BME280;63171;50.520;30.486;2024-01-15T02:29:58;98342.88;;;-0.04;100.00
45253;BME280;63171;50.520;30.486;2024-01-15T02:30:48;98340.38;;;-0.05;100.00
45253;BME280;63171;50.520;30.486;2024-01-15T02:31:39;98345.38;;;-0.02;100.00
45253;BME280;63171;50.520;30.486;2024-01-15T02:32:28;98343.03;;;-0.07;100.00
45253;BME280;63171;50.520;30.486;2024-01-15T02:33:19;98342.88;;;-0.04;100.00
45253;BME280;63171;50.520;30.486;2024-01-15T02:34:09;98334.03;;;-0.17;100.00
45253;BME280;63171;50.520;30.486;2024-01-15T02:34:59;98345.66;;;-0.08;100.00
45253;BME280;63171;50.520;30.486;2024-01-15T02:35:49;98344.97;;;-0.12;100.00
45253;BME280;63171;50.520;30.486;2024-01-15T02:36:40;98348.47;;;-0.13;100.00
45253;BME280;63171;50.520;30.486;2024-01-15T02:37:30;98344.00;;;-0.09;100.00
45253;BME280;63171;50.520;30.486;2024-01-15T02:38:22;98350.59;;;-0.04;100.00
45253;BME280;63171;50.520;30.486;2024-01-15T02:39:12;98353.75;;;0.03;100.00
45253;BME280;63171;50.520;30.486;2024-01-15T02:40:03;98340.81;;;0.05;100.00
45253;BME280;63171;50.520;30.486;2024-01-15T02:40:53;98344.16;;;0.07;100.00
45253;BME280;63171;50.520;30.486;2024-01-15T02:41:42;98351.19;;;0.03;100.00
45253;BME280;63171;50.520;30.486;2024-01-15T02:42:33;98353.84;;;0.02;100.00
45253;BME280;63171;50.520;30.486;2024-01-15T02:43:23;98355.50;;;0.03;100.00
45253;BME280;63171;50.520;30.486;2024-01-15T02:44:13;98353.63;;;0.06;100.00
45253;BME280;63171;50.520;30.486;2024-01-15T02:45:03;98351.81;;;0.08;100.00
45253;BME280;63171;50.520;30.486;2024-01-15T02:45:53;98352.94;;;0.03;100.00
45253;BME280;63171;50.520;30.486;2024-01-15T02:46:44;98358.00;;;0.04;100.00
45253;BME280;63171;50.520;30.486;2024-01-15T02:47:33;98355.56;;;0.01;100.00
45253;BME280;63171;50.520;30.486;2024-01-15T02:48:23;98352.72;;;0.07;100.00
45253;BME280;63171;50.520;30.486;2024-01-15T02:49:13;98346.53;;;0.11;100.00
45253;BME280;63171;50.520;30.486;2024-01-15T02:50:04;98346.59;;;0.10;100.00
45253;BME280;63171;50.520;30.486;2024-01-15T02:50:54;98342.56;;;0.04;100.00
45253;BME280;63171;50.520;30.486;2024-01-15T02:51:45;98340.06;;;0.03;100.00
45253;BME280;63171;50.520;30.486;2024-01-15T02:52:35;98345.31;;;-0.01;100.00
45253;BME280;63171;50.520;30.486;2024-01-15T02:53:27;98348.63;;;0.03;100.00
45253;BME280;63171;50.520;30.486;2024-01-15T02:54:17;98344.38;;;0.02;100.00
45253;BME280;63171;50.520;30.486;2024-01-15T02:55:08;98344.38;;;0.02;100.00
45253;BME280;63171;50.520;30.486;2024-01-15T02:55:58;98355.56;;;0.01;100.00
45253;BME280;63171;50.520;30.486;2024-01-15T02:56:48;98334.91;;;0.03;100.00
45253;BME280;63171;50.520;30.486;2024-01-15T02:57:38;98344.22;;;0.05;100.00
45253;BME280;63171;50.520;30.486;2024-01-15T02:58:29;98348.31;;;-0.10;100.00
45253;BME280;63171;50.520;30.486;2024-01-15T02:59:19;98338.72;;;-0.06;100.00
45253;BME280;63171;50.520;30.486;2024-01-15T03:00:10;98348.09;;;-0.05;100.00
45253;BME280;63171;50.520;30.486;2024-01-15T03:01:01;98340.06;;;0.03;100.00
45253;BME280;63171;50.520;30.486;2024-01-15T03:01:50;98339.22;;;0.02;100.00
45253;BME280;63171;50.520;30.486;2024-01-15T03:02:44;98341.53;;;0.08;100.00
45253;BME280;63171;50.520;30.486;2024-01-15T03:03:33;98349.03;;;0.13;100.00
45253;BME280;63171;50.520;30.486;2024-01-15T03:04:23;98344.72;;;0.13;100.00
45253;BME280;63171;50.520;30.486;2024-01-15T03:05:14;98345.38;;;0.18;100.00
45253;BME280;63171;50.520;30.486;2024-01-15T03:06:04;98349.69;;;0.18;100.00
45253;BME280;63171;50.520;30.486;2024-01-15T03:06:54;98340.28;;;0.17;100.00
45253;BME280;63171;50.520;30.486;2024-01-15T03:07:45;98356.75;;;0.13;100.00
45253;BME280;63171;50.520;30.486;2024-01-15T03:08:36;98352.78;;;0.06;100.00
45253;BME280;63171;50.520;30.486;2024-01-15T03:09:26;98348.47;;;0.06;100.00
45253;BME280;63171;50.520;30.486;2024-01-15T03:10:16;98345.91;;;0.06;100.00
45253;BME280;63171;50.520;30.486;2024-01-15T03:11:06;98346.53;;;0.11;100.00
45253;BME280;63171;50.520;30.486;2024-01-15T03:11:56;98350.84;;;0.11;100.00
45253;BME280;63171;50.520;30.486;2024-01-15T03:12:47;98347.56;;;0.07;100.00
45253;BME280;63171;50.520;30.486;2024-01-15T03:13:37;98342.63;;;0.03;100.00
45253;BME280;63171;50.520;30.486;2024-01-15T03:14:28;98351.94;;;0.05;100.00
45253;BME280;63171;50.520;30.486;2024-01-15T03:15:18;98350.06;;;0.09;100.00
45253;BME280;63171;50.520;30.486;2024-01-15T03:16:08;98354.91;;;0.16;100.00
45253;BME280;63171;50.520;30.486;2024-01-15T03:16:58;98354.75;;;0.19;100.00
45253;BME280;63171;50.520;30.486;2024-01-15T03:17:50;98360.88;;;0.17;100.00
45253;BME280;63171;50.520;30.486;2024-01-15T03:18:39;98352.31;;;0.16;100.00
45253;BME280;63171;50.520;30.486;2024-01-15T03:19:30;98352.94;;;0.21;100.00
45253;BME280;63171;50.520;30.486;2024-01-15T03:20:20;98357.94;;;0.24;100.00
45253;BME280;63171;50.520;30.486;2024-01-15T03:21:10;98351.97;;;0.24;100.00
45253;BME280;63171;50.520;30.486;2024-01-15T03:22:00;98356.22;;;0.25;100.00
45253;BME280;63171;50.520;30.486;2024-01-15T03:22:52;98354.34;;;0.28;100.00
45253;BME280;63171;50.520;30.486;2024-01-15T03:23:44;98349.13;;;0.30;100.00
45253;BME280;63171;50.520;30.486;2024-01-15T03:24:34;98350.94;;;0.28;100.00
45253;BME280;63171;50.520;30.486;2024-01-15T03:25:24;98356.94;;;0.28;100.00
45253;BME280;63171;50.520;30.486;2024-01-15T03:26:15;98345.06;;;0.24;100.00
45253;BME280;63171;50.520;30.486;2024-01-15T03:27:04;98343.34;;;0.25;100.00
45253;BME280;63171;50.520;30.486;2024-01-15T03:27:54;98344.97;;;0.27;100.00
45253;BME280;63171;50.520;30.486;2024-01-15T03:28:45;98348.56;;;0.23;100.00
45253;BME280;63171;50.520;30.486;2024-01-15T03:29:34;98341.75;;;0.22;100.00
45253;BME280;63171;50.520;30.486;2024-01-15T03:30:25;98345.84;;;0.26;100.00
45253;BME280;63171;50.520;30.486;2024-01-15T03:31:14;98344.13;;;0.27;100.00
45253;BME280;63171;50.520;30.486;2024-01-15T03:32:05;98337.34;;;0.24;100.00
45253;BME280;63171;50.520;30.486;2024-01-15T03:32:55;98345.84;;;0.26;100.00
45253;BME280;63171;50.520;30.486;2024-01-15T03:33:45;98345.91;;;0.25;100.00
45253;BME280;63171;50.520;30.486;2024-01-15T03:34:36;98346.88;;;0.22;100.00
45253;BME280;63171;50.520;30.486;2024-01-15T03:35:25;98347.66;;;0.24;100.00
45253;BME280;63171;50.520;30.486;2024-01-15T03:36:18;98347.56;;;0.26;100.00
45253;BME280;63171;50.520;30.486;2024-01-15T03:37:09;98347.47;;;0.29;100.00
45253;BME280;63171;50.520;30.486;2024-01-15T03:37:59;98347.47;;;0.29;100.00
45253;BME280;63171;50.520;30.486;2024-01-15T03:38:51;98344.06;;;0.28;100.00
45253;BME280;63171;50.520;30.486;2024-01-15T03:39:41;98343.06;;;0.31;100.00
45253;BME280;63171;50.520;30.486;2024-01-15T03:40:32;98344.75;;;0.32;100.00
45253;BME280;63171;50.520;30.486;2024-01-15T03:41:21;98343.22;;;0.28;100.00
45253;BME280;63171;50.520;30.486;2024-01-15T03:42:11;98335.53;;;0.26;100.00
45253;BME280;63171;50.520;30.486;2024-01-15T03:43:03;98341.59;;;0.25;100.00
45253;BME280;63171;50.520;30.486;2024-01-15T03:43:53;98346.75;;;0.25;100.00
45253;BME280;63171;50.520;30.486;2024-01-15T03:44:43;98349.28;;;0.27;100.00
45253;BME280;63171;50.520;30.486;2024-01-15T03:45:34;98344.13;;;0.27;100.00
45253;BME280;63171;50.520;30.486;2024-01-15T03:46:23;98341.66;;;0.24;100.00
45253;BME280;63171;50.520;30.486;2024-01-15T03:47:13;98347.03;;;0.19;100.00
45253;BME280;63171;50.520;30.486;2024-01-15T03:48:05;98344.53;;;0.18;100.00
45253;BME280;63171;50.520;30.486;2024-01-15T03:48:54;98344.59;;;0.16;100.00
45253;BME280;63171;50.520;30.486;2024-01-15T03:49:44;98349.88;;;0.13;100.00
45253;BME280;63171;50.520;30.486;2024-01-15T03:50:35;98341.59;;;0.07;100.00
45253;BME280;63171;50.520;30.486;2024-01-15T03:51:25;98344.94;;;0.09;100.00
45253;BME280;63171;50.520;30.486;2024-01-15T03:52:14;98343.19;;;0.09;100.00
45253;BME280;63171;50.520;30.486;2024-01-15T03:53:05;98346.66;;;0.08;100.00
45253;BME280;63171;50.520;30.486;2024-01-15T03:53:56;98342.41;;;0.07;100.00
45253;BME280;63171;50.520;30.486;2024-01-15T03:54:47;98347.66;;;0.06;100.00
45253;BME280;63171;50.520;30.486;2024-01-15T03:55:36;98338.31;;;0.03;100.00
45253;BME280;63171;50.520;30.486;2024-01-15T03:56:26;98342.75;;;-0.01;100.00
45253;BME280;63171;50.520;30.486;2024-01-15T03:57:17;98341.03;;;0.00;100.00
45253;BME280;63171;50.520;30.486;2024-01-15T03:58:07;98345.38;;;-0.02;100.00
45253;BME280;63171;50.520;30.486;2024-01-15T03:58:56;98350.53;;;-0.02;100.00
45253;BME280;63171;50.520;30.486;2024-01-15T03:59:47;98345.47;;;-0.04;100.00
45253;BME280;63171;50.520;30.486;2024-01-15T04:00:37;98352.34;;;-0.04;100.00
45253;BME280;63171;50.520;30.486;2024-01-15T04:01:27;98346.38;;;-0.05;100.00
45253;BME280;63171;50.520;30.486;2024-01-15T04:02:18;98351.66;;;-0.08;100.00
45253;BME280;63171;50.520;30.486;2024-01-15T04:03:07;98355.13;;;-0.09;100.00
45253;BME280;63171;50.520;30.486;2024-01-15T04:03:57;98354.22;;;-0.08;100.00
45253;BME280;63171;50.520;30.486;2024-01-15T04:04:48;98349.22;;;-0.11;100.00
45253;BME280;63171;50.520;30.486;2024-01-15T04:05:38;98349.16;;;-0.09;100.00
45253;BME280;63171;50.520;30.486;2024-01-15T04:06:29;98355.28;;;-0.12;100.00
45253;BME280;63171;50.520;30.486;2024-01-15T04:07:18;98348.19;;;-0.07;100.00
45253;BME280;63171;50.520;30.486;2024-01-15T04:08:09;98355.06;;;-0.07;100.00
45253;BME280;63171;50.520;30.486;2024-01-15T04:09:01;98360.41;;;-0.12;100.00
45253;BME280;63171;50.520;30.486;2024-01-15T04:09:51;98361.31;;;-0.13;100.00
45253;BME280;63171;50.520;30.486;2024-01-15T04:10:41;98356.22;;;-0.14;100.00
45253;BME280;63171;50.520;30.486;2024-01-15T04:11:31;98356.28;;;-0.16;100.00
45253;BME280;63171;50.520;30.486;2024-01-15T04:12:22;98358.78;;;-0.14;100.00
45253;BME280;63171;50.520;30.486;2024-01-15T04:13:12;98354.53;;;-0.15;100.00
45253;BME280;63171;50.520;30.486;2024-01-15T04:14:02;98352.94;;;-0.18;100.00
45253;BME280;63171;50.520;30.486;2024-01-15T04:14:55;98354.69;;;-0.18;100.00
45253;BME280;63171;50.520;30.486;2024-01-15T04:15:44;98351.22;;;-0.17;100.00
45253;BME280;63171;50.520;30.486;2024-01-15T04:16:37;98358.03;;;-0.16;100.00
45253;BME280;63171;50.520;30.486;2024-01-15T04:17:27;98351.22;;;-0.17;100.00
45253;BME280;63171;50.520;30.486;2024-01-15T04:18:17;98356.34;;;-0.17;100.00
45253;BME280;63171;50.520;30.486;2024-01-15T04:19:07;98354.00;;;-0.22;100.00
45253;BME280;63171;50.520;30.486;2024-01-15T04:19:58;98355.78;;;-0.24;100.00
45253;BME280;63171;50.520;30.486;2024-01-15T04:20:48;98348.19;;;-0.27;100.00
45253;BME280;63171;50.520;30.486;2024-01-15T04:21:37;98357.47;;;-0.23;100.00
45253;BME280;63171;50.520;30.486;2024-01-15T04:22:28;98354.00;;;-0.22;100.00
45253;BME280;63171;50.520;30.486;2024-01-15T04:23:19;98355.72;;;-0.22;100.00
45253;BME280;63171;50.520;30.486;2024-01-15T04:24:10;98351.47;;;-0.23;100.00
45253;BME280;63171;50.520;30.486;2024-01-15T04:25:01;98361.63;;;-0.20;100.00
45253;BME280;63171;50.520;30.486;2024-01-15T04:25:50;98364.22;;;-0.20;100.00
45253;BME280;63171;50.520;30.486;2024-01-15T04:26:40;98354.00;;;-0.22;100.00